createdAt,value
2022-09-01T03:00:52.753Z,99.90
2022-09-01T03:03:21.812Z,99.90
2022-09-01T03:05:56.275Z,99.90
2022-09-01T03:08:24.986Z,99.90
2022-09-01T03:10:53.961Z,99.90
2022-09-01T03:13:23.916Z,99.90
2022-09-01T03:15:51.412Z,99.90
2022-09-01T03:18:18.863Z,99.90
2022-09-01T03:20:47.394Z,99.90
2022-09-01T03:23:19.405Z,99.90
2022-09-01T03:25:48.472Z,99.90
2022-09-01T03:28:16.036Z,99.90
2022-09-01T03:30:54.037Z,99.90
2022-09-01T03:33:22.767Z,99.90
2022-09-01T03:35:49.977Z,99.90
2022-09-01T03:38:20.982Z,99.90
2022-09-01T03:40:49.830Z,99.90
2022-09-01T03:43:17.957Z,99.90
2022-09-01T03:45:46.151Z,99.90
2022-09-01T03:48:16.310Z,99.90
2022-09-01T03:50:46.294Z,99.90
2022-09-01T03:53:22.768Z,99.90
2022-09-01T03:55:50.420Z,99.90
2022-09-01T03:58:19.544Z,99.90
2022-09-01T04:00:55.982Z,99.90
2022-09-01T04:03:28.778Z,99.90
2022-09-01T04:05:57.036Z,99.90
2022-09-01T04:08:27.480Z,99.90
2022-09-01T04:11:03.793Z,99.90
2022-09-01T04:13:36.295Z,99.90
2022-09-01T04:16:10.786Z,99.90
2022-09-01T04:18:40.042Z,99.90
2022-09-01T04:21:09.057Z,99.90
2022-09-01T04:23:37.192Z,99.90
2022-09-01T04:26:10.623Z,99.90
2022-09-01T04:28:41.232Z,99.90
2022-09-01T04:31:14.950Z,99.90
2022-09-01T04:33:44.592Z,99.90
2022-09-01T04:36:25.902Z,99.90
2022-09-01T04:38:56.126Z,99.90
2022-09-01T04:41:25.881Z,99.90
2022-09-01T04:43:56.951Z,99.90
2022-09-01T04:46:28.427Z,99.90
2022-09-01T04:48:57.572Z,99.90
2022-09-01T04:51:28.045Z,99.90
2022-09-01T04:53:57.414Z,99.90
2022-09-01T04:56:26.811Z,99.90
2022-09-01T04:58:57.099Z,99.90
2022-09-01T05:01:27.777Z,99.90
2022-09-01T05:04:01.534Z,99.90
2022-09-01T05:06:33.912Z,99.90
2022-09-01T05:09:01.105Z,99.90
2022-09-01T05:11:28.994Z,99.90
2022-09-01T05:13:57.831Z,99.90
2022-09-01T05:16:25.898Z,99.90
2022-09-01T05:18:56.938Z,99.90
2022-09-01T05:21:26.657Z,99.90
2022-09-01T05:23:54.550Z,99.90
2022-09-01T05:26:24.980Z,99.90
2022-09-01T05:28:55.093Z,99.90
2022-09-01T05:31:23.459Z,99.90
2022-09-01T05:33:51.755Z,99.90
2022-09-01T05:36:22.991Z,99.90
2022-09-01T05:38:52.272Z,99.90
2022-09-01T05:41:21.112Z,99.90
2022-09-01T05:43:55.178Z,99.90
2022-09-01T05:46:27.712Z,99.90
2022-09-01T05:48:55.498Z,99.90
2022-09-01T05:51:44.219Z,99.90
2022-09-01T05:54:12.906Z,99.90
2022-09-01T05:56:43.937Z,99.90
2022-09-01T05:59:23.064Z,99.90
2022-09-01T06:01:53.398Z,99.90
2022-09-01T06:04:22.720Z,99.90
2022-09-01T06:07:07.817Z,99.90
2022-09-01T06:09:41.454Z,99.90
2022-09-01T06:12:17.595Z,99.90
2022-09-01T06:14:47.547Z,99.90
2022-09-01T06:17:16.464Z,99.90
2022-09-01T06:19:44.520Z,99.90
2022-09-01T06:22:12.231Z,99.90
2022-09-01T06:24:40.847Z,99.90
2022-09-01T06:27:11.206Z,99.90
2022-09-01T06:29:39.797Z,99.90
2022-09-01T06:32:10.370Z,99.90
2022-09-01T06:34:43.571Z,99.90
2022-09-01T06:37:11.634Z,99.90
2022-09-01T06:39:39.129Z,99.90
2022-09-01T06:42:06.806Z,99.90
2022-09-01T06:44:40.338Z,99.90
2022-09-01T06:47:09.121Z,99.90
2022-09-01T06:49:36.745Z,99.90
2022-09-01T06:52:04.676Z,99.90
2022-09-01T06:54:35.571Z,99.90
2022-09-01T06:59:53.971Z,99.90
2022-09-01T07:02:22.391Z,99.90
2022-09-01T07:04:54.606Z,99.90
2022-09-01T07:10:25.376Z,99.90
2022-09-01T07:13:11.424Z,99.90
2022-09-01T07:18:31.703Z,99.90
2022-09-01T07:21:06.953Z,99.90
2022-09-01T07:23:47.829Z,99.90
2022-09-01T07:26:26.575Z,99.90
2022-09-01T07:29:02.059Z,99.90
2022-09-01T07:34:46.533Z,99.90
2022-09-01T07:38:47.377Z,99.90
2022-09-01T07:43:12.873Z,99.90
2022-09-01T07:45:47.922Z,99.90
2022-09-01T07:49:03.211Z,99.90
2022-09-01T07:54:02.113Z,99.90
2022-09-01T07:56:30.356Z,99.90
2022-09-01T07:58:58.591Z,99.90
2022-09-01T08:01:27.884Z,99.90
2022-09-01T08:04:00.061Z,99.90
2022-09-01T08:06:29.009Z,99.90
2022-09-01T08:08:59.782Z,99.90
2022-09-01T08:14:18.398Z,99.90
2022-09-01T08:16:53.416Z,99.90
2022-09-01T08:19:21.149Z,99.90
2022-09-01T08:21:48.483Z,99.90
2022-09-01T08:24:15.895Z,99.90
2022-09-01T08:26:43.127Z,99.90
2022-09-01T08:29:10.345Z,99.90
2022-09-01T08:31:37.683Z,99.90
2022-09-01T08:34:05.607Z,99.90
2022-09-01T08:36:33.169Z,99.90
2022-09-01T08:39:00.369Z,99.90
2022-09-01T08:41:46.917Z,99.90
2022-09-01T08:44:30.471Z,99.90
2022-09-01T08:47:12.937Z,99.90
2022-09-01T08:49:46.962Z,99.90
2022-09-01T08:52:31.878Z,99.90
2022-09-01T08:55:14.885Z,99.90
2022-09-01T08:57:45.362Z,99.90
2022-09-01T09:00:16.687Z,99.90
2022-09-01T09:03:01.918Z,99.90
2022-09-01T09:05:48.895Z,99.90
2022-09-01T09:08:33.573Z,99.90
2022-09-01T09:11:22.553Z,99.90
2022-09-01T09:13:58.832Z,99.90
2022-09-01T09:16:30.111Z,99.90
2022-09-01T09:19:18.715Z,99.90
2022-09-01T09:21:48.945Z,99.90
2022-09-01T09:24:37.040Z,99.90
2022-09-01T09:27:07.020Z,99.90
2022-09-01T09:29:36.842Z,99.90
2022-09-01T09:35:10.332Z,99.90
2022-09-01T09:37:37.530Z,99.90
2022-09-01T09:40:09.925Z,99.90
2022-09-01T09:42:43.689Z,99.90
2022-09-01T09:45:25.085Z,99.90
2022-09-01T09:47:54.767Z,99.90
2022-09-01T09:50:24.393Z,99.90
2022-09-01T09:52:55.698Z,99.90
2022-09-01T09:55:25.002Z,99.90
2022-09-01T09:57:59.200Z,99.90
2022-09-01T10:00:34.168Z,99.90
2022-09-01T10:03:13.215Z,99.90
2022-09-01T10:05:43.236Z,99.90
2022-09-01T10:08:37.373Z,99.90
2022-09-01T10:11:06.068Z,99.90
2022-09-01T10:13:36.688Z,99.90
2022-09-01T10:16:25.111Z,99.90
2022-09-01T10:19:00.673Z,99.90
2022-09-01T10:21:35.182Z,99.90
2022-09-01T10:24:17.657Z,99.90
2022-09-01T10:26:52.892Z,99.90
2022-09-01T10:29:23.717Z,99.90
2022-09-01T10:32:14.888Z,99.90
2022-09-01T10:34:42.124Z,99.90
2022-09-01T10:37:11.363Z,99.90
2022-09-01T10:40:33.463Z,99.90
2022-09-01T10:43:35.116Z,99.90
2022-09-01T10:46:25.586Z,99.90
2022-09-01T10:49:03.503Z,99.90
2022-09-01T10:51:39.129Z,99.90
2022-09-01T10:54:55.731Z,99.90
2022-09-01T10:57:51.079Z,99.90
2022-09-01T11:00:39.843Z,99.90
2022-09-01T11:06:12.077Z,99.90
2022-09-01T11:08:58.345Z,99.90
2022-09-01T11:11:37.313Z,99.90
2022-09-01T11:14:18.990Z,99.90
2022-09-01T11:17:14.342Z,99.90
2022-09-01T11:19:50.388Z,99.90
2022-09-01T11:22:45.953Z,99.90
2022-09-01T11:25:41.050Z,99.90
2022-09-01T11:28:23.014Z,99.90
2022-09-01T11:31:08.896Z,99.90
2022-09-01T11:33:51.012Z,99.90
2022-09-01T11:36:26.966Z,99.90
2022-09-01T11:39:30.076Z,99.90
2022-09-01T11:42:19.325Z,99.90
2022-09-01T11:44:55.428Z,99.90
2022-09-01T11:47:27.605Z,99.90
2022-09-01T11:49:59.204Z,99.90
2022-09-01T11:52:31.312Z,99.90
2022-09-01T11:54:59.888Z,99.90
2022-09-01T11:57:35.821Z,99.90
2022-09-01T12:00:14.199Z,99.90
2022-09-01T12:02:48.095Z,99.90
2022-09-01T12:05:27.048Z,99.90
2022-09-01T12:07:55.138Z,99.90
2022-09-01T12:10:27.468Z,99.90
2022-09-01T12:13:24.201Z,99.90
2022-09-01T12:16:16.903Z,99.90
2022-09-01T12:18:51.357Z,99.90
2022-09-01T12:21:26.627Z,99.90
2022-09-01T12:24:09.566Z,99.90
2022-09-01T12:26:38.016Z,99.90
2022-09-01T12:29:07.026Z,99.90
2022-09-01T12:31:35.219Z,99.90
2022-09-01T12:34:04.683Z,99.90
2022-09-01T12:36:34.950Z,99.90
2022-09-01T12:39:22.510Z,99.90
2022-09-01T12:42:27.156Z,99.90
2022-09-01T12:45:03.179Z,99.90
2022-09-01T12:47:36.607Z,99.90
2022-09-01T12:50:26.494Z,99.90
2022-09-01T12:52:55.620Z,99.90
2022-09-01T12:58:23.333Z,99.90
2022-09-01T13:01:05.262Z,99.90
2022-09-01T13:03:34.534Z,99.90
2022-09-01T13:06:03.613Z,99.90
2022-09-01T13:08:36.094Z,99.90
2022-09-01T13:11:11.369Z,99.90
2022-09-01T13:13:38.949Z,99.90
2022-09-01T13:16:13.001Z,99.90
2022-09-01T13:21:31.251Z,99.90
2022-09-01T13:23:58.880Z,99.90
2022-09-01T13:26:26.364Z,99.90
2022-09-01T13:28:53.959Z,99.90
2022-09-01T13:31:29.484Z,99.90
2022-09-01T13:34:20.634Z,99.90
2022-09-01T13:36:49.386Z,99.90
2022-09-01T13:39:20.366Z,99.90
2022-09-01T13:41:48.620Z,99.90
2022-09-01T13:44:17.378Z,99.90
2022-09-01T13:47:28.564Z,99.90
2022-09-01T13:49:42.488Z,99.90
2022-09-01T13:52:12.970Z,99.90
2022-09-01T13:54:40.320Z,99.90
2022-09-01T13:57:07.756Z,99.90
2022-09-01T13:59:34.943Z,99.90
2022-09-01T14:02:02.163Z,99.90
2022-09-01T14:04:29.506Z,99.90
2022-09-01T14:06:56.910Z,99.90
2022-09-01T14:09:26.147Z,99.90
2022-09-01T14:11:54.962Z,99.90
2022-09-01T14:14:23.001Z,99.90
2022-09-01T14:16:50.407Z,99.90
2022-09-01T14:19:17.809Z,99.90
2022-09-01T14:21:45.401Z,99.90
2022-09-01T14:24:13.484Z,99.90
2022-09-01T14:26:44.027Z,99.90
2022-09-01T14:29:11.585Z,99.90
2022-09-01T14:31:38.770Z,99.90
2022-09-01T14:34:06.776Z,99.90
2022-09-01T14:36:34.354Z,99.90
2022-09-01T14:39:01.628Z,99.90
2022-09-01T14:41:29.425Z,99.90
2022-09-01T14:44:03.011Z,99.90
2022-09-01T14:46:34.414Z,99.90
2022-09-01T14:49:03.020Z,99.90
2022-09-01T14:54:18.876Z,99.90
2022-09-01T14:59:35.741Z,99.50
2022-09-01T15:02:04.263Z,99.80
2022-09-01T15:04:32.137Z,99.50
2022-09-01T15:06:59.552Z,99.50
2022-09-01T15:09:26.770Z,99.30
2022-09-01T15:11:53.965Z,99.40
2022-09-01T15:14:21.221Z,99.00
2022-09-01T15:16:48.491Z,98.90
2022-09-01T15:19:15.694Z,98.50
2022-09-01T15:21:45.687Z,98.90
2022-09-01T15:24:13.666Z,99.10
2022-09-01T15:26:40.937Z,99.10
2022-09-01T15:29:11.893Z,99.80
2022-09-01T15:31:39.927Z,99.90
2022-09-01T15:34:07.484Z,99.90
2022-09-01T15:36:36.811Z,99.90
2022-09-01T15:39:04.152Z,99.90
2022-09-01T15:41:33.460Z,99.90
2022-09-01T15:44:05.430Z,99.90
2022-09-01T15:46:34.413Z,99.90
2022-09-01T15:49:09.376Z,99.80
2022-09-01T15:51:41.522Z,99.90
2022-09-01T15:54:15.312Z,99.90
2022-09-01T15:56:43.150Z,99.60
2022-09-01T15:59:11.590Z,99.90
2022-09-01T16:01:41.540Z,99.90
2022-09-01T16:04:19.049Z,99.90
2022-09-01T16:06:49.504Z,99.90
2022-09-01T16:09:21.267Z,99.50
2022-09-01T16:11:48.787Z,99.90
2022-09-01T16:14:16.047Z,99.90
2022-09-01T16:17:04.137Z,99.90
2022-09-01T16:19:53.017Z,99.90
2022-09-01T16:22:35.525Z,99.70
2022-09-01T16:25:10.889Z,99.90
2022-09-01T16:27:44.137Z,99.90
2022-09-01T16:30:16.930Z,99.90
2022-09-01T16:32:46.955Z,99.90
2022-09-01T16:35:16.403Z,99.90
2022-09-01T16:38:02.045Z,99.90
2022-09-01T16:40:32.270Z,99.90
2022-09-01T16:43:13.377Z,99.90
2022-09-01T16:45:53.583Z,99.90
2022-09-01T16:48:38.985Z,99.90
2022-09-01T16:51:13.581Z,99.90
2022-09-01T16:53:54.272Z,99.90
2022-09-01T16:56:44.355Z,99.90
2022-09-01T16:59:24.262Z,99.90
2022-09-01T17:02:38.660Z,99.90
2022-09-01T17:05:24.922Z,99.90
2022-09-01T17:08:03.845Z,99.90
2022-09-01T17:10:33.606Z,99.90
2022-09-01T17:13:23.016Z,99.90
2022-09-01T17:16:02.231Z,99.90
2022-09-01T17:18:44.400Z,99.90
2022-09-01T17:21:18.597Z,99.90
2022-09-01T17:23:57.174Z,99.90
2022-09-01T17:26:29.037Z,99.90
2022-09-01T17:29:00.196Z,99.90
2022-09-01T17:31:43.560Z,99.90
2022-09-01T17:34:39.006Z,99.90
2022-09-01T17:37:39.268Z,99.90
2022-09-01T17:40:09.561Z,99.90
2022-09-01T17:42:58.052Z,99.90
2022-09-01T17:45:31.419Z,99.90
2022-09-01T17:48:20.748Z,99.90
2022-09-01T17:50:59.552Z,99.90
2022-09-01T17:53:58.117Z,99.90
2022-09-01T17:56:43.875Z,99.90
2022-09-01T17:59:44.789Z,99.90
2022-09-01T18:02:42.476Z,99.90
2022-09-01T18:05:23.280Z,99.90
2022-09-01T18:07:52.069Z,99.90
2022-09-01T18:10:30.112Z,99.90
2022-09-01T18:13:03.842Z,99.90
2022-09-01T18:15:45.426Z,99.90
2022-09-01T18:18:35.949Z,99.90
2022-09-01T18:21:12.041Z,99.90
2022-09-01T18:23:41.920Z,99.90
2022-09-01T18:26:46.832Z,99.90
2022-09-01T18:29:14.162Z,99.90
2022-09-01T18:32:05.157Z,99.90
2022-09-01T18:34:45.750Z,99.90
2022-09-01T18:37:33.218Z,99.90
2022-09-01T18:40:03.588Z,99.90
2022-09-01T18:42:44.438Z,99.90
2022-09-01T18:45:27.510Z,99.90
2022-09-01T18:48:19.892Z,99.90
2022-09-01T18:51:10.971Z,99.90
2022-09-01T18:53:52.681Z,99.90
2022-09-01T18:56:49.486Z,99.90
2022-09-01T18:59:39.101Z,99.90
2022-09-01T19:02:33.660Z,99.90
2022-09-01T19:05:12.723Z,99.90
2022-09-01T19:07:57.409Z,99.90
2022-09-01T19:10:40.106Z,99.90
2022-09-01T19:13:28.084Z,99.90
2022-09-01T19:16:42.682Z,99.90
2022-09-01T19:19:31.772Z,99.90
2022-09-01T19:21:59.097Z,99.90
2022-09-01T19:24:47.074Z,99.90
2022-09-01T19:27:18.915Z,99.90
2022-09-01T19:29:52.489Z,99.90
2022-09-01T19:32:22.552Z,99.90
2022-09-01T19:35:02.643Z,99.90
2022-09-01T19:37:29.889Z,99.90
2022-09-01T19:39:57.356Z,99.90
2022-09-01T19:42:30.665Z,99.90
2022-09-01T19:45:29.746Z,99.90
2022-09-01T19:48:17.056Z,99.90
2022-09-01T19:51:14.573Z,99.90
2022-09-01T19:53:55.838Z,99.90
2022-09-01T19:56:54.199Z,99.90
2022-09-01T19:59:45.799Z,99.90
2022-09-01T20:02:54.341Z,99.90
2022-09-01T20:05:37.447Z,99.90
2022-09-01T20:08:19.839Z,99.90
2022-09-01T20:10:56.915Z,99.90
2022-09-01T20:13:43.835Z,99.90
2022-09-01T20:16:20.824Z,99.90
2022-09-01T20:18:53.449Z,99.90
2022-09-01T20:21:21.552Z,99.90
2022-09-01T20:23:54.735Z,99.90
2022-09-01T20:26:51.843Z,99.90
2022-09-01T20:29:34.927Z,99.90
2022-09-01T20:32:04.091Z,99.90
2022-09-01T20:34:53.010Z,99.90
2022-09-01T20:37:21.913Z,99.90
2022-09-01T20:40:07.953Z,99.90
2022-09-01T20:42:44.769Z,99.90
2022-09-01T20:45:17.095Z,99.90
2022-09-01T20:47:53.669Z,99.90
2022-09-01T20:50:28.012Z,99.90
2022-09-01T20:53:10.492Z,99.90
2022-09-01T20:55:55.523Z,99.90
2022-09-01T20:58:35.896Z,99.90
